sensor_id;sensor_type;location;lat;lon;timestamp;temperature;humidity
11989;DHT22;6054;50.966;7.094;2024-03-08T00:00:52;12.70;37.30
11989;DHT22;6054;50.966;7.094;2024-03-08T00:03:22;12.70;38.20
11989;DHT22;6054;50.966;7.094;2024-03-08T00:06:20;12.70;39.40
11989;DHT22;6054;50.966;7.094;2024-03-08T00:08:50;12.70;39.60
11989;DHT22;6054;50.966;7.094;2024-03-08T00:11:35;12.70;39.40
11989;DHT22;6054;50.966;7.094;2024-03-08T00:14:46;12.60;38.80
11989;DHT22;6054;50.966;7.094;2024-03-08T00:17:36;12.60;39.80
11989;DHT22;6054;50.966;7.094;2024-03-08T00:20:31;12.50;39.30
11989;DHT22;6054;50.966;7.094;2024-03-08T00:23:37;12.50;39.70
11989;DHT22;6054;50.966;7.094;2024-03-08T00:26:29;12.50;40.00
11989;DHT22;6054;50.966;7.094;2024-03-08T00:29:04;12.40;38.60
11989;DHT22;6054;50.966;7.094;2024-03-08T00:32:13;12.70;39.00
11989;DHT22;6054;50.966;7.094;2024-03-08T00:34:40;12.10;39.70
11989;DHT22;6054;50.966;7.094;2024-03-08T00:37:10;12.80;39.20
11989;DHT22;6054;50.966;7.094;2024-03-08T00:39:42;12.30;38.60
11989;DHT22;6054;50.966;7.094;2024-03-08T00:42:09;12.30;39.10
11989;DHT22;6054;50.966;7.094;2024-03-08T00:44:46;12.30;38.20
11989;DHT22;6054;50.966;7.094;2024-03-08T00:47:16;12.20;38.50
11989;DHT22;6054;50.966;7.094;2024-03-08T00:49:51;12.50;39.30
11989;DHT22;6054;50.966;7.094;2024-03-08T00:52:24;12.20;38.90
11989;DHT22;6054;50.966;7.094;2024-03-08T00:54:55;12.20;39.70
11989;DHT22;6054;50.966;7.094;2024-03-08T00:57:23;12.40;39.30
11989;DHT22;6054;50.966;7.094;2024-03-08T01:00:14;12.10;39.00
11989;DHT22;6054;50.966;7.094;2024-03-08T01:02:44;12.10;39.70
11989;DHT22;6054;50.966;7.094;2024-03-08T01:05:42;12.00;39.40
11989;DHT22;6054;50.966;7.094;2024-03-08T01:08:40;12.20;40.10
11989;DHT22;6054;50.966;7.094;2024-03-08T01:11:10;12.00;38.80
11989;DHT22;6054;50.966;7.094;2024-03-08T01:13:38;12.10;40.10
11989;DHT22;6054;50.966;7.094;2024-03-08T01:16:24;12.30;39.10
11989;DHT22;6054;50.966;7.094;2024-03-08T01:18:56;12.00;40.00
11989;DHT22;6054;50.966;7.094;2024-03-08T01:21:27;12.00;37.40
11989;DHT22;6054;50.966;7.094;2024-03-08T01:24:05;12.00;38.80
11989;DHT22;6054;50.966;7.094;2024-03-08T01:26:32;12.00;38.20
11989;DHT22;6054;50.966;7.094;2024-03-08T01:29:16;12.20;39.50
11989;DHT22;6054;50.966;7.094;2024-03-08T01:31:59;11.90;40.00
11989;DHT22;6054;50.966;7.094;2024-03-08T01:34:41;11.80;40.10
11989;DHT22;6054;50.966;7.094;2024-03-08T01:37:11;11.80;40.30
11989;DHT22;6054;50.966;7.094;2024-03-08T01:39:47;11.80;40.50
11989;DHT22;6054;50.966;7.094;2024-03-08T01:42:17;11.80;38.40
11989;DHT22;6054;50.966;7.094;2024-03-08T01:44:45;11.80;39.10
11989;DHT22;6054;50.966;7.094;2024-03-08T01:47:21;12.20;40.30
11989;DHT22;6054;50.966;7.094;2024-03-08T01:49:55;11.80;40.10
11989;DHT22;6054;50.966;7.094;2024-03-08T01:52:30;11.80;40.60
11989;DHT22;6054;50.966;7.094;2024-03-08T01:55:02;11.80;39.40
11989;DHT22;6054;50.966;7.094;2024-03-08T01:57:41;11.60;39.10
11989;DHT22;6054;50.966;7.094;2024-03-08T02:00:09;12.00;39.00
11989;DHT22;6054;50.966;7.094;2024-03-08T02:02:42;11.70;39.50
11989;DHT22;6054;50.966;7.094;2024-03-08T02:05:10;11.80;39.70
11989;DHT22;6054;50.966;7.094;2024-03-08T02:07:50;11.80;38.10
11989;DHT22;6054;50.966;7.094;2024-03-08T02:10:24;11.80;39.40
11989;DHT22;6054;50.966;7.094;2024-03-08T02:13:24;11.50;38.30
11989;DHT22;6054;50.966;7.094;2024-03-08T02:15:53;11.60;39.80
11989;DHT22;6054;50.966;7.094;2024-03-08T02:18:29;11.80;40.40
11989;DHT22;6054;50.966;7.094;2024-03-08T02:21:05;11.50;40.20
11989;DHT22;6054;50.966;7.094;2024-03-08T02:23:46;11.50;40.30
11989;DHT22;6054;50.966;7.094;2024-03-08T02:26:14;11.40;39.50
11989;DHT22;6054;50.966;7.094;2024-03-08T02:28:49;11.50;38.40
11989;DHT22;6054;50.966;7.094;2024-03-08T02:31:19;11.50;39.10
11989;DHT22;6054;50.966;7.094;2024-03-08T02:33:50;11.50;38.90
11989;DHT22;6054;50.966;7.094;2024-03-08T02:36:40;11.50;41.00
11989;DHT22;6054;50.966;7.094;2024-03-08T02:39:13;11.50;41.00
11989;DHT22;6054;50.966;7.094;2024-03-08T02:41:42;11.40;40.80
11989;DHT22;6054;50.966;7.094;2024-03-08T02:44:10;11.40;41.20
11989;DHT22;6054;50.966;7.094;2024-03-08T02:46:40;11.60;40.90
11989;DHT22;6054;50.966;7.094;2024-03-08T02:49:20;11.40;40.30
11989;DHT22;6054;50.966;7.094;2024-03-08T02:52:12;11.50;40.10
11989;DHT22;6054;50.966;7.094;2024-03-08T02:54:41;11.60;41.10
11989;DHT22;6054;50.966;7.094;2024-03-08T02:57:27;11.40;39.90
11989;DHT22;6054;50.966;7.094;2024-03-08T02:59:54;11.50;41.00
11989;DHT22;6054;50.966;7.094;2024-03-08T03:02:25;11.30;40.50
11989;DHT22;6054;50.966;7.094;2024-03-08T03:04:52;11.30;40.70
11989;DHT22;6054;50.966;7.094;2024-03-08T03:10:28;11.30;40.00
11989;DHT22;6054;50.966;7.094;2024-03-08T03:16:00;11.30;41.00
11989;DHT22;6054;50.966;7.094;2024-03-08T03:18:36;11.50;40.40
11989;DHT22;6054;50.966;7.094;2024-03-08T03:21:04;11.20;39.10
11989;DHT22;6054;50.966;7.094;2024-03-08T03:23:42;11.20;41.00
11989;DHT22;6054;50.966;7.094;2024-03-08T03:26:11;11.30;40.60
11989;DHT22;6054;50.966;7.094;2024-03-08T03:28:50;11.20;39.20
11989;DHT22;6054;50.966;7.094;2024-03-08T03:31:21;11.30;41.30
11989;DHT22;6054;50.966;7.094;2024-03-08T03:34:05;11.10;40.90
11989;DHT22;6054;50.966;7.094;2024-03-08T03:36:41;11.10;39.40
11989;DHT22;6054;50.966;7.094;2024-03-08T03:39:12;11.10;41.40
11989;DHT22;6054;50.966;7.094;2024-03-08T03:42:12;11.00;39.40
11989;DHT22;6054;50.966;7.094;2024-03-08T03:44:51;11.00;41.50
11989;DHT22;6054;50.966;7.094;2024-03-08T03:47:30;11.00;40.80
11989;DHT22;6054;50.966;7.094;2024-03-08T03:50:10;11.40;41.80
11989;DHT22;6054;50.966;7.094;2024-03-08T03:52:39;11.00;42.10
11989;DHT22;6054;50.966;7.094;2024-03-08T03:55:08;11.20;39.80
11989;DHT22;6054;50.966;7.094;2024-03-08T03:57:54;11.10;41.20
11989;DHT22;6054;50.966;7.094;2024-03-08T04:00:29;11.10;38.30
11989;DHT22;6054;50.966;7.094;2024-03-08T04:03:03;10.80;38.80
11989;DHT22;6054;50.966;7.094;2024-03-08T04:05:42;10.80;41.00
11989;DHT22;6054;50.966;7.094;2024-03-08T04:08:10;11.10;41.90
11989;DHT22;6054;50.966;7.094;2024-03-08T04:10:38;10.90;39.70
11989;DHT22;6054;50.966;7.094;2024-03-08T04:13:17;10.80;40.80
11989;DHT22;6054;50.966;7.094;2024-03-08T04:15:59;10.60;41.10
11989;DHT22;6054;50.966;7.094;2024-03-08T04:21:21;10.80;41.70
11989;DHT22;6054;50.966;7.094;2024-03-08T04:23:53;10.90;41.70
11989;DHT22;6054;50.966;7.094;2024-03-08T04:26:23;10.80;41.80
11989;DHT22;6054;50.966;7.094;2024-03-08T04:29:26;10.70;40.60
11989;DHT22;6054;50.966;7.094;2024-03-08T04:32:10;10.80;41.50
11989;DHT22;6054;50.966;7.094;2024-03-08T04:34:39;10.70;41.50
11989;DHT22;6054;50.966;7.094;2024-03-08T04:37:13;10.70;41.70
11989;DHT22;6054;50.966;7.094;2024-03-08T04:39:45;10.70;41.30
11989;DHT22;6054;50.966;7.094;2024-03-08T04:42:13;10.70;41.30
11989;DHT22;6054;50.966;7.094;2024-03-08T04:45:22;10.70;41.70
11989;DHT22;6054;50.966;7.094;2024-03-08T04:47:51;10.70;41.90
11989;DHT22;6054;50.966;7.094;2024-03-08T04:50:21;10.70;41.70
11989;DHT22;6054;50.966;7.094;2024-03-08T04:52:53;10.70;41.10
11989;DHT22;6054;50.966;7.094;2024-03-08T04:55:28;10.70;41.00
11989;DHT22;6054;50.966;7.094;2024-03-08T04:58:28;10.30;41.20
11989;DHT22;6054;50.966;7.094;2024-03-08T05:04:11;10.60;41.40
11989;DHT22;6054;50.966;7.094;2024-03-08T05:06:47;10.40;39.90
11989;DHT22;6054;50.966;7.094;2024-03-08T05:09:50;10.70;42.50
11989;DHT22;6054;50.966;7.094;2024-03-08T05:12:19;10.50;40.30
11989;DHT22;6054;50.966;7.094;2024-03-08T05:14:48;10.80;41.90
11989;DHT22;6054;50.966;7.094;2024-03-08T05:17:30;10.40;39.80
11989;DHT22;6054;50.966;7.094;2024-03-08T05:20:14;10.40;40.60
11989;DHT22;6054;50.966;7.094;2024-03-08T05:22:58;10.40;42.40
11989;DHT22;6054;50.966;7.094;2024-03-08T05:25:31;10.50;42.20
11989;DHT22;6054;50.966;7.094;2024-03-08T05:27:57;10.50;41.80
11989;DHT22;6054;50.966;7.094;2024-03-08T05:30:41;10.50;41.90
11989;DHT22;6054;50.966;7.094;2024-03-08T05:33:17;10.70;41.90
11989;DHT22;6054;50.966;7.094;2024-03-08T05:35:55;10.70;41.20
11989;DHT22;6054;50.966;7.094;2024-03-08T05:38:22;10.50;40.60
11989;DHT22;6054;50.966;7.094;2024-03-08T05:40:50;10.50;40.70
11989;DHT22;6054;50.966;7.094;2024-03-08T05:43:17;10.50;41.10
11989;DHT22;6054;50.966;7.094;2024-03-08T05:45:47;10.80;41.60
11989;DHT22;6054;50.966;7.094;2024-03-08T05:48:27;10.60;42.30
11989;DHT22;6054;50.966;7.094;2024-03-08T05:51:05;10.50;42.60
11989;DHT22;6054;50.966;7.094;2024-03-08T05:53:32;10.50;42.60
11989;DHT22;6054;50.966;7.094;2024-03-08T05:56:17;10.70;41.40
11989;DHT22;6054;50.966;7.094;2024-03-08T05:58:49;10.80;41.90
11989;DHT22;6054;50.966;7.094;2024-03-08T06:01:21;10.50;38.20
11989;DHT22;6054;50.966;7.094;2024-03-08T06:03:49;10.60;42.10
11989;DHT22;6054;50.966;7.094;2024-03-08T06:06:25;10.50;41.40
11989;DHT22;6054;50.966;7.094;2024-03-08T06:08:54;10.30;42.50
11989;DHT22;6054;50.966;7.094;2024-03-08T06:11:51;10.50;42.70
11989;DHT22;6054;50.966;7.094;2024-03-08T07:24:34;10.70;43.80
11989;DHT22;6054;50.966;7.094;2024-03-08T07:27:16;10.80;44.00
11989;DHT22;6054;50.966;7.094;2024-03-08T07:29:50;10.70;43.70
11989;DHT22;6054;50.966;7.094;2024-03-08T07:35:52;11.10;43.70
11989;DHT22;6054;50.966;7.094;2024-03-08T07:38:45;10.70;43.70
11989;DHT22;6054;50.966;7.094;2024-03-08T07:41:40;10.90;41.30
11989;DHT22;6054;50.966;7.094;2024-03-08T07:44:11;10.90;42.20
11989;DHT22;6054;50.966;7.094;2024-03-08T07:46:41;11.10;43.90
11989;DHT22;6054;50.966;7.094;2024-03-08T07:49:17;11.30;43.10
11989;DHT22;6054;50.966;7.094;2024-03-08T07:51:47;11.00;42.40
11989;DHT22;6054;50.966;7.094;2024-03-08T07:57:11;11.10;43.60
11989;DHT22;6054;50.966;7.094;2024-03-08T07:59:42;11.40;42.50
11989;DHT22;6054;50.966;7.094;2024-03-08T08:02:20;11.50;42.60
11989;DHT22;6054;50.966;7.094;2024-03-08T08:04:51;11.30;43.70
11989;DHT22;6054;50.966;7.094;2024-03-08T08:07:21;11.20;41.60
11989;DHT22;6054;50.966;7.094;2024-03-08T08:10:02;11.60;42.70
11989;DHT22;6054;50.966;7.094;2024-03-08T08:12:53;11.30;41.30
11989;DHT22;6054;50.966;7.094;2024-03-08T08:15:44;11.40;43.30
11989;DHT22;6054;50.966;7.094;2024-03-08T08:18:17;11.50;43.00
11989;DHT22;6054;50.966;7.094;2024-03-08T08:20:51;11.70;43.60
11989;DHT22;6054;50.966;7.094;2024-03-08T08:31:39;11.80;42.80
11989;DHT22;6054;50.966;7.094;2024-03-08T08:34:09;11.90;42.80
11989;DHT22;6054;50.966;7.094;2024-03-08T08:37:00;11.90;42.40
11989;DHT22;6054;50.966;7.094;2024-03-08T08:39:42;12.20;42.50
11989;DHT22;6054;50.966;7.094;2024-03-08T08:42:11;12.00;42.60
11989;DHT22;6054;50.966;7.094;2024-03-08T08:44:50;12.00;42.00
11989;DHT22;6054;50.966;7.094;2024-03-08T08:47:32;12.10;41.00
11989;DHT22;6054;50.966;7.094;2024-03-08T08:50:02;12.40;41.40
11989;DHT22;6054;50.966;7.094;2024-03-08T08:52:37;12.10;41.20
11989;DHT22;6054;50.966;7.094;2024-03-08T08:55:10;12.20;40.40
11989;DHT22;6054;50.966;7.094;2024-03-08T08:57:54;12.40;41.20
11989;DHT22;6054;50.966;7.094;2024-03-08T09:00:22;12.30;40.20
11989;DHT22;6054;50.966;7.094;2024-03-08T09:02:55;12.50;40.80
11989;DHT22;6054;50.966;7.094;2024-03-08T09:05:24;12.50;41.20
11989;DHT22;6054;50.966;7.094;2024-03-08T09:08:04;12.60;41.10
11989;DHT22;6054;50.966;7.094;2024-03-08T09:13:35;12.70;41.90
11989;DHT22;6054;50.966;7.094;2024-03-08T09:16:04;12.60;40.50
11989;DHT22;6054;50.966;7.094;2024-03-08T09:18:46;12.70;41.30
11989;DHT22;6054;50.966;7.094;2024-03-08T09:21:14;12.80;39.70
11989;DHT22;6054;50.966;7.094;2024-03-08T09:23:42;13.00;40.70
11989;DHT22;6054;50.966;7.094;2024-03-08T09:26:18;13.00;40.70
11989;DHT22;6054;50.966;7.094;2024-03-08T09:29:03;13.10;40.90
11989;DHT22;6054;50.966;7.094;2024-03-08T09:31:44;13.10;41.60
11989;DHT22;6054;50.966;7.094;2024-03-08T09:34:16;13.20;41.00
11989;DHT22;6054;50.966;7.094;2024-03-08T09:36:56;13.20;40.90
11989;DHT22;6054;50.966;7.094;2024-03-08T09:39:24;13.40;41.10
11989;DHT22;6054;50.966;7.094;2024-03-08T09:41:51;13.40;40.70
11989;DHT22;6054;50.966;7.094;2024-03-08T09:44:19;13.50;40.50
11989;DHT22;6054;50.966;7.094;2024-03-08T09:47:02;13.40;40.50
11989;DHT22;6054;50.966;7.094;2024-03-08T09:49:34;13.50;40.60
11989;DHT22;6054;50.966;7.094;2024-03-08T09:52:08;13.60;41.10
11989;DHT22;6054;50.966;7.094;2024-03-08T09:54:35;13.70;40.40
11989;DHT22;6054;50.966;7.094;2024-03-08T09:57:13;13.70;40.70
11989;DHT22;6054;50.966;7.094;2024-03-08T09:59:40;13.80;40.20
11989;DHT22;6054;50.966;7.094;2024-03-08T10:02:15;13.80;40.20
11989;DHT22;6054;50.966;7.094;2024-03-08T10:04:46;13.90;40.10
11989;DHT22;6054;50.966;7.094;2024-03-08T10:07:14;14.00;40.70
11989;DHT22;6054;50.966;7.094;2024-03-08T10:09:43;14.10;39.50
11989;DHT22;6054;50.966;7.094;2024-03-08T10:12:23;14.20;39.00
11989;DHT22;6054;50.966;7.094;2024-03-08T10:14:55;14.30;40.40
11989;DHT22;6054;50.966;7.094;2024-03-08T10:17:36;14.40;40.20
11989;DHT22;6054;50.966;7.094;2024-03-08T10:20:13;14.50;39.50
11989;DHT22;6054;50.966;7.094;2024-03-08T10:22:52;14.60;39.80
11989;DHT22;6054;50.966;7.094;2024-03-08T10:25:23;14.60;39.60
11989;DHT22;6054;50.966;7.094;2024-03-08T10:27:58;14.70;39.30
11989;DHT22;6054;50.966;7.094;2024-03-08T10:30:26;14.80;39.10
11989;DHT22;6054;50.966;7.094;2024-03-08T10:32:56;14.80;38.90
11989;DHT22;6054;50.966;7.094;2024-03-08T10:35:48;14.90;39.20
11989;DHT22;6054;50.966;7.094;2024-03-08T10:38:36;15.00;39.00
11989;DHT22;6054;50.966;7.094;2024-03-08T10:41:10;15.10;38.70
11989;DHT22;6054;50.966;7.094;2024-03-08T10:44:10;15.30;38.70
11989;DHT22;6054;50.966;7.094;2024-03-08T10:46:57;15.40;38.90
11989;DHT22;6054;50.966;7.094;2024-03-08T10:49:31;15.50;38.80
11989;DHT22;6054;50.966;7.094;2024-03-08T10:52:06;15.70;38.00
11989;DHT22;6054;50.966;7.094;2024-03-08T10:54:48;15.60;38.10
11989;DHT22;6054;50.966;7.094;2024-03-08T10:57:25;15.60;37.60
11989;DHT22;6054;50.966;7.094;2024-03-08T10:59:54;15.70;37.90
11989;DHT22;6054;50.966;7.094;2024-03-08T11:02:26;15.80;37.60
11989;DHT22;6054;50.966;7.094;2024-03-08T11:05:37;15.90;36.20
11989;DHT22;6054;50.966;7.094;2024-03-08T11:08:17;16.00;37.20
11989;DHT22;6054;50.966;7.094;2024-03-08T11:10:52;16.10;36.80
11989;DHT22;6054;50.966;7.094;2024-03-08T11:13:35;16.20;36.40
11989;DHT22;6054;50.966;7.094;2024-03-08T11:16:07;16.30;36.70
11989;DHT22;6054;50.966;7.094;2024-03-08T11:18:38;16.30;34.50
11989;DHT22;6054;50.966;7.094;2024-03-08T11:21:23;16.30;35.80
11989;DHT22;6054;50.966;7.094;2024-03-08T11:24:08;16.30;35.20
11989;DHT22;6054;50.966;7.094;2024-03-08T11:26:45;16.50;34.60
11989;DHT22;6054;50.966;7.094;2024-03-08T11:29:36;16.60;35.40
11989;DHT22;6054;50.966;7.094;2024-03-08T11:32:10;16.60;35.80
11989;DHT22;6054;50.966;7.094;2024-03-08T11:34:51;16.80;36.00
11989;DHT22;6054;50.966;7.094;2024-03-08T11:37:33;16.80;34.70
11989;DHT22;6054;50.966;7.094;2024-03-08T11:40:17;16.80;34.80
11989;DHT22;6054;50.966;7.094;2024-03-08T11:42:48;16.90;33.90
11989;DHT22;6054;50.966;7.094;2024-03-08T11:45:22;16.90;34.50
11989;DHT22;6054;50.966;7.094;2024-03-08T11:48:00;17.00;34.10
11989;DHT22;6054;50.966;7.094;2024-03-08T11:50:29;17.00;33.50
11989;DHT22;6054;50.966;7.094;2024-03-08T11:53:05;17.10;33.90
11989;DHT22;6054;50.966;7.094;2024-03-08T11:55:53;17.20;34.20
11989;DHT22;6054;50.966;7.094;2024-03-08T11:58:23;17.30;34.50
11989;DHT22;6054;50.966;7.094;2024-03-08T12:01:03;17.40;33.70
11989;DHT22;6054;50.966;7.094;2024-03-08T12:03:52;17.40;33.90
11989;DHT22;6054;50.966;7.094;2024-03-08T12:06:26;17.40;33.30
11989;DHT22;6054;50.966;7.094;2024-03-08T12:19:34;17.80;32.80
11989;DHT22;6054;50.966;7.094;2024-03-08T12:22:15;17.60;32.60
11989;DHT22;6054;50.966;7.094;2024-03-08T12:25:11;17.80;31.20
11989;DHT22;6054;50.966;7.094;2024-03-08T12:27:44;17.80;31.70
11989;DHT22;6054;50.966;7.094;2024-03-08T12:30:25;17.90;32.10
11989;DHT22;6054;50.966;7.094;2024-03-08T12:33:00;17.90;33.10
11989;DHT22;6054;50.966;7.094;2024-03-08T12:35:32;18.00;33.30
11989;DHT22;6054;50.966;7.094;2024-03-08T12:38:21;18.10;32.90
11989;DHT22;6054;50.966;7.094;2024-03-08T12:40:55;18.40;32.00
11989;DHT22;6054;50.966;7.094;2024-03-08T12:43:27;18.30;32.00
11989;DHT22;6054;50.966;7.094;2024-03-08T12:46:26;18.40;32.60
11989;DHT22;6054;50.966;7.094;2024-03-08T12:49:06;18.60;33.20
11989;DHT22;6054;50.966;7.094;2024-03-08T12:51:51;18.70;32.60
11989;DHT22;6054;50.966;7.094;2024-03-08T12:54:33;19.00;30.90
11989;DHT22;6054;50.966;7.094;2024-03-08T12:57:02;18.90;32.20
11989;DHT22;6054;50.966;7.094;2024-03-08T12:59:46;19.00;32.00
11989;DHT22;6054;50.966;7.094;2024-03-08T13:02:31;19.20;31.20
11989;DHT22;6054;50.966;7.094;2024-03-08T13:05:11;19.20;30.20
11989;DHT22;6054;50.966;7.094;2024-03-08T13:07:58;19.50;31.40
11989;DHT22;6054;50.966;7.094;2024-03-08T13:10:25;19.60;29.80
11989;DHT22;6054;50.966;7.094;2024-03-08T13:16:00;19.80;30.70
11989;DHT22;6054;50.966;7.094;2024-03-08T13:31:15;20.20;29.70
11989;DHT22;6054;50.966;7.094;2024-03-08T13:33:46;20.20;29.80
11989;DHT22;6054;50.966;7.094;2024-03-08T13:36:17;20.00;29.60
11989;DHT22;6054;50.966;7.094;2024-03-08T13:38:49;20.20;29.20
11989;DHT22;6054;50.966;7.094;2024-03-08T13:41:30;19.90;30.00
11989;DHT22;6054;50.966;7.094;2024-03-08T13:47:21;19.90;30.00
11989;DHT22;6054;50.966;7.094;2024-03-08T13:49:51;20.00;30.00
11989;DHT22;6054;50.966;7.094;2024-03-08T13:55:14;20.00;30.00
11989;DHT22;6054;50.966;7.094;2024-03-08T13:57:48;20.00;29.40
11989;DHT22;6054;50.966;7.094;2024-03-08T14:03:28;20.10;30.70
11989;DHT22;6054;50.966;7.094;2024-03-08T14:06:01;20.40;29.40
11989;DHT22;6054;50.966;7.094;2024-03-08T14:08:41;20.20;29.80
11989;DHT22;6054;50.966;7.094;2024-03-08T14:11:50;20.30;30.30
11989;DHT22;6054;50.966;7.094;2024-03-08T14:14:36;20.30;30.50
11989;DHT22;6054;50.966;7.094;2024-03-08T14:17:51;20.60;29.00
11989;DHT22;6054;50.966;7.094;2024-03-08T14:20:57;20.60;30.70
11989;DHT22;6054;50.966;7.094;2024-03-08T14:23:41;20.50;30.80
11989;DHT22;6054;50.966;7.094;2024-03-08T14:26:47;20.60;30.70
11989;DHT22;6054;50.966;7.094;2024-03-08T14:29:29;20.60;29.90
11989;DHT22;6054;50.966;7.094;2024-03-08T14:32:22;20.60;30.30
11989;DHT22;6054;50.966;7.094;2024-03-08T14:34:49;20.40;30.70
11989;DHT22;6054;50.966;7.094;2024-03-08T14:37:19;20.30;30.10
11989;DHT22;6054;50.966;7.094;2024-03-08T14:39:53;20.40;30.20
11989;DHT22;6054;50.966;7.094;2024-03-08T14:45:35;20.10;30.70
11989;DHT22;6054;50.966;7.094;2024-03-08T14:48:20;20.40;30.90
11989;DHT22;6054;50.966;7.094;2024-03-08T14:50:58;20.50;30.90
11989;DHT22;6054;50.966;7.094;2024-03-08T15:02:06;20.40;30.40
11989;DHT22;6054;50.966;7.094;2024-03-08T15:05:19;20.30;29.80
11989;DHT22;6054;50.966;7.094;2024-03-08T15:07:56;20.30;29.90
11989;DHT22;6054;50.966;7.094;2024-03-08T15:10:28;20.00;30.60
11989;DHT22;6054;50.966;7.094;2024-03-08T15:13:04;20.10;30.50
11989;DHT22;6054;50.966;7.094;2024-03-08T15:15:45;20.00;30.00
11989;DHT22;6054;50.966;7.094;2024-03-08T15:21:52;20.00;30.60
11989;DHT22;6054;50.966;7.094;2024-03-08T15:27:30;19.80;31.10
11989;DHT22;6054;50.966;7.094;2024-03-08T15:33:49;19.90;31.30
11989;DHT22;6054;50.966;7.094;2024-03-08T15:36:35;19.80;30.60
11989;DHT22;6054;50.966;7.094;2024-03-08T15:39:17;19.80;29.30
11989;DHT22;6054;50.966;7.094;2024-03-08T15:42:02;19.80;30.20
11989;DHT22;6054;50.966;7.094;2024-03-08T15:44:43;19.80;30.40
11989;DHT22;6054;50.966;7.094;2024-03-08T15:47:14;19.80;29.60
11989;DHT22;6054;50.966;7.094;2024-03-08T15:49:56;19.90;30.40
11989;DHT22;6054;50.966;7.094;2024-03-08T15:52:29;19.70;31.50
11989;DHT22;6054;50.966;7.094;2024-03-08T15:55:07;19.80;29.70
11989;DHT22;6054;50.966;7.094;2024-03-08T15:57:40;19.60;30.50
11989;DHT22;6054;50.966;7.094;2024-03-08T16:00:14;19.60;30.50
11989;DHT22;6054;50.966;7.094;2024-03-08T16:02:56;19.50;30.50
11989;DHT22;6054;50.966;7.094;2024-03-08T16:05:25;19.50;29.80
11989;DHT22;6054;50.966;7.094;2024-03-08T16:08:31;19.40;30.30
11989;DHT22;6054;50.966;7.094;2024-03-08T16:11:32;19.30;30.30
11989;DHT22;6054;50.966;7.094;2024-03-08T16:14:12;19.30;29.90
11989;DHT22;6054;50.966;7.094;2024-03-08T16:16:45;19.30;30.40
11989;DHT22;6054;50.966;7.094;2024-03-08T16:19:18;19.30;30.50
11989;DHT22;6054;50.966;7.094;2024-03-08T16:22:00;19.30;30.60
11989;DHT22;6054;50.966;7.094;2024-03-08T16:24:38;19.30;30.50
11989;DHT22;6054;50.966;7.094;2024-03-08T16:27:27;19.30;30.50
11989;DHT22;6054;50.966;7.094;2024-03-08T16:30:35;19.30;30.90
11989;DHT22;6054;50.966;7.094;2024-03-08T16:33:07;19.30;30.70
11989;DHT22;6054;50.966;7.094;2024-03-08T16:35:38;19.30;30.30
11989;DHT22;6054;50.966;7.094;2024-03-08T16:38:25;19.20;31.00
11989;DHT22;6054;50.966;7.094;2024-03-08T16:43:30;19.20;30.80
11989;DHT22;6054;50.966;7.094;2024-03-08T16:46:01;19.20;30.20
11989;DHT22;6054;50.966;7.094;2024-03-08T16:48:45;19.20;29.70
11989;DHT22;6054;50.966;7.094;2024-03-08T16:51:24;19.50;29.50
11989;DHT22;6054;50.966;7.094;2024-03-08T16:53:59;19.60;29.50
11989;DHT22;6054;50.966;7.094;2024-03-08T16:56:27;19.40;29.00
11989;DHT22;6054;50.966;7.094;2024-03-08T16:59:44;19.20;29.70
11989;DHT22;6054;50.966;7.094;2024-03-08T17:02:00;19.20;31.00
11989;DHT22;6054;50.966;7.094;2024-03-08T17:04:32;19.10;30.00
11989;DHT22;6054;50.966;7.094;2024-03-08T17:07:01;19.00;30.10
11989;DHT22;6054;50.966;7.094;2024-03-08T17:09:43;19.00;31.30
11989;DHT22;6054;50.966;7.094;2024-03-08T17:12:32;18.90;31.40
11989;DHT22;6054;50.966;7.094;2024-03-08T17:15:34;18.80;31.40
11989;DHT22;6054;50.966;7.094;2024-03-08T17:21:13;18.70;31.30
11989;DHT22;6054;50.966;7.094;2024-03-08T17:23:59;18.80;31.80
11989;DHT22;6054;50.966;7.094;2024-03-08T17:26:32;18.50;31.50
11989;DHT22;6054;50.966;7.094;2024-03-08T17:29:05;18.70;31.60
11989;DHT22;6054;50.966;7.094;2024-03-08T17:31:55;18.50;32.30
11989;DHT22;6054;50.966;7.094;2024-03-08T17:34:44;18.30;30.90
11989;DHT22;6054;50.966;7.094;2024-03-08T17:37:25;18.30;28.10
11989;DHT22;6054;50.966;7.094;2024-03-08T17:40:10;18.30;32.30
11989;DHT22;6054;50.966;7.094;2024-03-08T17:42:41;18.40;31.00
11989;DHT22;6054;50.966;7.094;2024-03-08T17:45:28;18.30;30.10
11989;DHT22;6054;50.966;7.094;2024-03-08T17:52:10;18.30;33.10
11989;DHT22;6054;50.966;7.094;2024-03-08T17:55:10;18.10;32.70
11989;DHT22;6054;50.966;7.094;2024-03-08T17:57:57;18.10;33.10
11989;DHT22;6054;50.966;7.094;2024-03-08T18:00:30;18.30;33.10
11989;DHT22;6054;50.966;7.094;2024-03-08T18:06:08;18.00;33.10
11989;DHT22;6054;50.966;7.094;2024-03-08T18:12:16;17.80;33.60
11989;DHT22;6054;50.966;7.094;2024-03-08T18:14:55;18.00;32.90
11989;DHT22;6054;50.966;7.094;2024-03-08T18:17:28;17.80;33.60
11989;DHT22;6054;50.966;7.094;2024-03-08T18:20:13;17.70;33.30
11989;DHT22;6054;50.966;7.094;2024-03-08T18:23:17;17.70;32.90
11989;DHT22;6054;50.966;7.094;2024-03-08T18:32:07;17.60;34.00
11989;DHT22;6054;50.966;7.094;2024-03-08T18:35:10;17.50;32.00
11989;DHT22;6054;50.966;7.094;2024-03-08T18:38:18;17.50;33.20
11989;DHT22;6054;50.966;7.094;2024-03-08T18:40:50;17.60;32.30
11989;DHT22;6054;50.966;7.094;2024-03-08T18:43:48;17.50;33.00
11989;DHT22;6054;50.966;7.094;2024-03-08T18:46:50;17.50;34.40
11989;DHT22;6054;50.966;7.094;2024-03-08T18:55:54;17.40;33.90
11989;DHT22;6054;50.966;7.094;2024-03-08T18:58:39;17.70;34.70
11989;DHT22;6054;50.966;7.094;2024-03-08T19:01:40;17.60;33.00
11989;DHT22;6054;50.966;7.094;2024-03-08T19:07:51;17.30;34.70
11989;DHT22;6054;50.966;7.094;2024-03-08T19:13:46;17.40;34.40
11989;DHT22;6054;50.966;7.094;2024-03-08T19:16:44;17.50;33.30
11989;DHT22;6054;50.966;7.094;2024-03-08T19:19:30;17.30;35.10
11989;DHT22;6054;50.966;7.094;2024-03-08T19:22:10;17.30;33.70
11989;DHT22;6054;50.966;7.094;2024-03-08T19:24:59;17.20;35.00
11989;DHT22;6054;50.966;7.094;2024-03-08T19:27:36;17.40;34.80
11989;DHT22;6054;50.966;7.094;2024-03-08T19:30:37;17.40;34.90
11989;DHT22;6054;50.966;7.094;2024-03-08T19:33:23;17.20;35.20
11989;DHT22;6054;50.966;7.094;2024-03-08T19:36:10;17.10;35.10
11989;DHT22;6054;50.966;7.094;2024-03-08T19:38:41;17.00;32.30
11989;DHT22;6054;50.966;7.094;2024-03-08T19:41:23;17.00;34.80
11989;DHT22;6054;50.966;7.094;2024-03-08T19:44:14;17.00;34.90
11989;DHT22;6054;50.966;7.094;2024-03-08T19:46:58;17.00;32.70
11989;DHT22;6054;50.966;7.094;2024-03-08T19:49:50;16.90;33.70
11989;DHT22;6054;50.966;7.094;2024-03-08T19:52:29;16.90;35.60
11989;DHT22;6054;50.966;7.094;2024-03-08T19:55:15;16.70;34.50
11989;DHT22;6054;50.966;7.094;2024-03-08T19:58:17;16.90;34.80
11989;DHT22;6054;50.966;7.094;2024-03-08T20:00:55;16.90;35.40
11989;DHT22;6054;50.966;7.094;2024-03-08T20:04:05;16.90;34.00
11989;DHT22;6054;50.966;7.094;2024-03-08T20:07:03;17.00;35.30
11989;DHT22;6054;50.966;7.094;2024-03-08T20:12:57;16.80;35.50
11989;DHT22;6054;50.966;7.094;2024-03-08T20:15:41;16.60;35.60